sensor_id;sensor_type;location;lat;lon;timestamp;P1;P2;P0
76784;PMS7003;66893;44.316;0.092;2024-03-29T00:00:51;3.00;2.00;1.75
76784;PMS7003;66893;44.316;0.092;2024-03-29T00:03:17;3.00;3.00;2.25
76784;PMS7003;66893;44.316;0.092;2024-03-29T00:05:42;3.00;2.00;2.00
76784;PMS7003;66893;44.316;0.092;2024-03-29T00:08:08;3.75;2.25;1.00
76784;PMS7003;66893;44.316;0.092;2024-03-29T00:10:33;2.00;2.00;1.25
76784;PMS7003;66893;44.316;0.092;2024-03-29T00:12:59;2.75;1.00;1.00
76784;PMS7003;66893;44.316;0.092;2024-03-29T00:15:25;2.50;2.00;1.25
76784;PMS7003;66893;44.316;0.092;2024-03-29T00:17:50;2.00;2.00;2.00
76784;PMS7003;66893;44.316;0.092;2024-03-29T00:20:16;1.00;1.00;1.00
76784;PMS7003;66893;44.316;0.092;2024-03-29T00:22:42;1.50;1.50;1.00
76784;PMS7003;66893;44.316;0.092;2024-03-29T00:25:07;2.25;1.75;1.00
76784;PMS7003;66893;44.316;0.092;2024-03-29T00:27:33;1.50;1.50;1.25
76784;PMS7003;66893;44.316;0.092;2024-03-29T00:29:58;2.00;2.00;2.00
76784;PMS7003;66893;44.316;0.092;2024-03-29T00:32:25;2.00;2.00;1.00
76784;PMS7003;66893;44.316;0.092;2024-03-29T00:34:51;1.00;1.00;1.00
76784;PMS7003;66893;44.316;0.092;2024-03-29T00:37:17;1.00;0.25;0.00
76784;PMS7003;66893;44.316;0.092;2024-03-29T00:39:43;3.00;1.00;1.00
76784;PMS7003;66893;44.316;0.092;2024-03-29T00:42:09;1.00;1.00;1.00
76784;PMS7003;66893;44.316;0.092;2024-03-29T00:44:37;2.25;2.00;1.00
76784;PMS7003;66893;44.316;0.092;2024-03-29T00:47:09;1.00;1.00;1.00
76784;PMS7003;66893;44.316;0.092;2024-03-29T00:49:35;0.75;0.75;0.25
76784;PMS7003;66893;44.316;0.092;2024-03-29T00:52:01;1.00;1.00;1.00
76784;PMS7003;66893;44.316;0.092;2024-03-29T00:54:27;3.00;1.50;1.00
76784;PMS7003;66893;44.316;0.092;2024-03-29T00:56:52;1.00;1.00;1.00
76784;PMS7003;66893;44.316;0.092;2024-03-29T00:59:18;0.00;0.00;0.00
76784;PMS7003;66893;44.316;0.092;2024-03-29T01:01:45;2.00;2.00;1.00
76784;PMS7003;66893;44.316;0.092;2024-03-29T01:04:12;1.00;1.00;0.25
76784;PMS7003;66893;44.316;0.092;2024-03-29T01:06:38;0.75;0.75;0.00
76784;PMS7003;66893;44.316;0.092;2024-03-29T01:09:04;0.00;0.00;0.00
76784;PMS7003;66893;44.316;0.092;2024-03-29T01:11:30;2.00;1.00;1.00
76784;PMS7003;66893;44.316;0.092;2024-03-29T01:13:56;0.00;0.00;0.00
76784;PMS7003;66893;44.316;0.092;2024-03-29T01:16:21;2.00;1.00;1.00
76784;PMS7003;66893;44.316;0.092;2024-03-29T01:18:47;1.00;0.00;0.00
76784;PMS7003;66893;44.316;0.092;2024-03-29T01:21:13;0.75;0.75;0.00
76784;PMS7003;66893;44.316;0.092;2024-03-29T01:23:39;2.00;1.00;1.00
76784;PMS7003;66893;44.316;0.092;2024-03-29T01:26:05;1.25;0.00;0.00
76784;PMS7003;66893;44.316;0.092;2024-03-29T01:28:32;0.00;0.00;0.00
76784;PMS7003;66893;44.316;0.092;2024-03-29T01:30:57;0.00;0.00;0.00
76784;PMS7003;66893;44.316;0.092;2024-03-29T01:33:25;0.00;0.00;0.00
76784;PMS7003;66893;44.316;0.092;2024-03-29T01:35:51;1.00;1.00;1.00
76784;PMS7003;66893;44.316;0.092;2024-03-29T01:38:17;0.75;0.75;0.50
76784;PMS7003;66893;44.316;0.092;2024-03-29T01:40:43;0.75;0.75;0.00
76784;PMS7003;66893;44.316;0.092;2024-03-29T01:43:08;2.00;0.00;0.00
76784;PMS7003;66893;44.316;0.092;2024-03-29T01:45:38;1.00;1.00;0.00
76784;PMS7003;66893;44.316;0.092;2024-03-29T01:48:08;1.50;0.75;0.00
76784;PMS7003;66893;44.316;0.092;2024-03-29T01:50:34;0.00;0.00;0.00
76784;PMS7003;66893;44.316;0.092;2024-03-29T01:53:02;2.50;0.25;0.25
76784;PMS7003;66893;44.316;0.092;2024-03-29T01:55:28;0.00;0.00;0.00
76784;PMS7003;66893;44.316;0.092;2024-03-29T01:57:54;0.00;0.00;0.00
76784;PMS7003;66893;44.316;0.092;2024-03-29T02:00:21;0.00;0.00;0.00
76784;PMS7003;66893;44.316;0.092;2024-03-29T02:02:48;0.00;0.00;0.00
76784;PMS7003;66893;44.316;0.092;2024-03-29T02:05:13;1.25;1.00;0.00
76784;PMS7003;66893;44.316;0.092;2024-03-29T02:07:39;0.00;0.00;0.00
76784;PMS7003;66893;44.316;0.092;2024-03-29T02:10:06;0.00;0.00;0.00
76784;PMS7003;66893;44.316;0.092;2024-03-29T02:12:35;0.25;0.25;0.25
76784;PMS7003;66893;44.316;0.092;2024-03-29T02:15:00;0.00;0.00;0.00
76784;PMS7003;66893;44.316;0.092;2024-03-29T02:17:27;0.00;0.00;0.00
76784;PMS7003;66893;44.316;0.092;2024-03-29T02:19:53;2.00;0.00;0.00
76784;PMS7003;66893;44.316;0.092;2024-03-29T02:22:18;0.00;0.00;0.00
76784;PMS7003;66893;44.316;0.092;2024-03-29T02:24:47;0.00;0.00;0.00
76784;PMS7003;66893;44.316;0.092;2024-03-29T02:27:13;0.25;0.25;0.00
76784;PMS7003;66893;44.316;0.092;2024-03-29T02:29:38;0.00;0.00;0.00
76784;PMS7003;66893;44.316;0.092;2024-03-29T02:32:04;0.00;0.00;0.00
76784;PMS7003;66893;44.316;0.092;2024-03-29T02:34:30;0.00;0.00;0.00
76784;PMS7003;66893;44.316;0.092;2024-03-29T02:36:55;0.00;0.00;0.00
76784;PMS7003;66893;44.316;0.092;2024-03-29T02:39:22;0.00;0.00;0.00
76784;PMS7003;66893;44.316;0.092;2024-03-29T02:41:47;1.00;1.00;0.00
76784;PMS7003;66893;44.316;0.092;2024-03-29T02:44:13;0.25;0.25;0.00
76784;PMS7003;66893;44.316;0.092;2024-03-29T02:46:40;0.00;0.00;0.00
76784;PMS7003;66893;44.316;0.092;2024-03-29T02:49:07;1.00;0.00;0.00
76784;PMS7003;66893;44.316;0.092;2024-03-29T02:51:33;0.00;0.00;0.00
76784;PMS7003;66893;44.316;0.092;2024-03-29T02:53:58;0.00;0.00;0.00
76784;PMS7003;66893;44.316;0.092;2024-03-29T02:56:23;1.50;0.00;0.00
76784;PMS7003;66893;44.316;0.092;2024-03-29T02:58:49;0.00;0.00;0.00
76784;PMS7003;66893;44.316;0.092;2024-03-29T03:01:14;0.00;0.00;0.00
76784;PMS7003;66893;44.316;0.092;2024-03-29T03:03:40;0.00;0.00;0.00
76784;PMS7003;66893;44.316;0.092;2024-03-29T03:06:05;0.00;0.00;0.00
76784;PMS7003;66893;44.316;0.092;2024-03-29T03:08:31;0.00;0.00;0.00
76784;PMS7003;66893;44.316;0.092;2024-03-29T03:11:15;2.00;0.00;0.00
76784;PMS7003;66893;44.316;0.092;2024-03-29T03:13:40;0.00;0.00;0.00
76784;PMS7003;66893;44.316;0.092;2024-03-29T03:16:06;0.00;0.00;0.00
76784;PMS7003;66893;44.316;0.092;2024-03-29T03:18:31;0.00;0.00;0.00
76784;PMS7003;66893;44.316;0.092;2024-03-29T03:20:57;0.00;0.00;0.00
76784;PMS7003;66893;44.316;0.092;2024-03-29T03:23:23;0.00;0.00;0.00
76784;PMS7003;66893;44.316;0.092;2024-03-29T03:25:55;0.00;0.00;0.00
76784;PMS7003;66893;44.316;0.092;2024-03-29T03:28:23;0.50;0.00;0.00
76784;PMS7003;66893;44.316;0.092;2024-03-29T03:30:49;0.00;0.00;0.00
76784;PMS7003;66893;44.316;0.092;2024-03-29T03:33:15;0.00;0.00;0.00
76784;PMS7003;66893;44.316;0.092;2024-03-29T03:35:41;0.75;0.00;0.00
76784;PMS7003;66893;44.316;0.092;2024-03-29T03:38:07;2.00;0.00;0.00
76784;PMS7003;66893;44.316;0.092;2024-03-29T03:40:33;0.00;0.00;0.00
76784;PMS7003;66893;44.316;0.092;2024-03-29T03:42:59;0.00;0.00;0.00
76784;PMS7003;66893;44.316;0.092;2024-03-29T03:45:25;0.00;0.00;0.00
76784;PMS7003;66893;44.316;0.092;2024-03-29T03:47:51;0.75;0.75;0.00
76784;PMS7003;66893;44.316;0.092;2024-03-29T03:50:16;0.00;0.00;0.00
76784;PMS7003;66893;44.316;0.092;2024-03-29T03:52:42;0.00;0.00;0.00
76784;PMS7003;66893;44.316;0.092;2024-03-29T03:55:07;0.25;0.25;0.00
76784;PMS7003;66893;44.316;0.092;2024-03-29T03:57:33;0.00;0.00;0.00
76784;PMS7003;66893;44.316;0.092;2024-03-29T03:59:59;0.75;0.00;0.00
76784;PMS7003;66893;44.316;0.092;2024-03-29T04:02:25;1.50;0.00;0.00
76784;PMS7003;66893;44.316;0.092;2024-03-29T04:04:50;2.00;0.00;0.00
76784;PMS7003;66893;44.316;0.092;2024-03-29T04:07:16;0.00;0.00;0.00
76784;PMS7003;66893;44.316;0.092;2024-03-29T04:09:44;0.00;0.00;0.00
76784;PMS7003;66893;44.316;0.092;2024-03-29T04:12:10;0.00;0.00;0.00
76784;PMS7003;66893;44.316;0.092;2024-03-29T04:14:38;0.00;0.00;0.00
76784;PMS7003;66893;44.316;0.092;2024-03-29T04:17:04;1.00;0.00;0.00
76784;PMS7003;66893;44.316;0.092;2024-03-29T04:19:29;0.25;0.25;0.25
76784;PMS7003;66893;44.316;0.092;2024-03-29T04:21:55;0.00;0.00;0.00
76784;PMS7003;66893;44.316;0.092;2024-03-29T04:24:21;0.00;0.00;0.00
76784;PMS7003;66893;44.316;0.092;2024-03-29T04:26:46;0.00;0.00;0.00
76784;PMS7003;66893;44.316;0.092;2024-03-29T04:29:12;1.25;0.00;0.00
76784;PMS7003;66893;44.316;0.092;2024-03-29T04:31:39;0.00;0.00;0.00
76784;PMS7003;66893;44.316;0.092;2024-03-29T04:34:04;0.00;0.00;0.00
76784;PMS7003;66893;44.316;0.092;2024-03-29T04:36:30;0.00;0.00;0.00
76784;PMS7003;66893;44.316;0.092;2024-03-29T04:38:55;2.00;0.00;0.00
76784;PMS7003;66893;44.316;0.092;2024-03-29T04:41:20;0.00;0.00;0.00
76784;PMS7003;66893;44.316;0.092;2024-03-29T04:43:46;0.00;0.00;0.00
76784;PMS7003;66893;44.316;0.092;2024-03-29T04:46:12;0.00;0.00;0.00
76784;PMS7003;66893;44.316;0.092;2024-03-29T04:48:39;0.00;0.00;0.00
76784;PMS7003;66893;44.316;0.092;2024-03-29T04:51:08;0.00;0.00;0.00
76784;PMS7003;66893;44.316;0.092;2024-03-29T04:53:37;1.00;0.00;0.00
76784;PMS7003;66893;44.316;0.092;2024-03-29T04:56:03;1.50;0.00;0.00
76784;PMS7003;66893;44.316;0.092;2024-03-29T04:58:29;0.00;0.00;0.00
76784;PMS7003;66893;44.316;0.092;2024-03-29T05:00:55;0.00;0.00;0.00
76784;PMS7003;66893;44.316;0.092;2024-03-29T05:03:21;1.00;1.00;0.00
76784;PMS7003;66893;44.316;0.092;2024-03-29T05:05:47;0.00;0.00;0.00
76784;PMS7003;66893;44.316;0.092;2024-03-29T05:08:14;0.00;0.00;0.00
76784;PMS7003;66893;44.316;0.092;2024-03-29T05:10:40;0.00;0.00;0.00
76784;PMS7003;66893;44.316;0.092;2024-03-29T05:13:06;1.50;0.25;0.00
76784;PMS7003;66893;44.316;0.092;2024-03-29T05:15:32;0.00;0.00;0.00
76784;PMS7003;66893;44.316;0.092;2024-03-29T05:17:57;0.00;0.00;0.00
76784;PMS7003;66893;44.316;0.092;2024-03-29T05:20:23;0.00;0.00;0.00
76784;PMS7003;66893;44.316;0.092;2024-03-29T05:22:48;1.00;0.00;0.00
76784;PMS7003;66893;44.316;0.092;2024-03-29T05:25:14;0.00;0.00;0.00
76784;PMS7003;66893;44.316;0.092;2024-03-29T05:27:39;0.00;0.00;0.00
76784;PMS7003;66893;44.316;0.092;2024-03-29T05:30:05;1.00;1.00;1.00
76784;PMS7003;66893;44.316;0.092;2024-03-29T05:32:31;0.50;0.50;0.25
76784;PMS7003;66893;44.316;0.092;2024-03-29T05:34:57;0.50;0.50;0.00
76784;PMS7003;66893;44.316;0.092;2024-03-29T05:37:22;0.75;0.25;0.00
76784;PMS7003;66893;44.316;0.092;2024-03-29T05:39:53;0.50;0.00;0.00
76784;PMS7003;66893;44.316;0.092;2024-03-29T05:42:28;0.25;0.25;0.00
76784;PMS7003;66893;44.316;0.092;2024-03-29T05:44:55;1.00;0.00;0.00
76784;PMS7003;66893;44.316;0.092;2024-03-29T05:47:21;0.00;0.00;0.00
76784;PMS7003;66893;44.316;0.092;2024-03-29T05:49:47;0.00;0.00;0.00
76784;PMS7003;66893;44.316;0.092;2024-03-29T05:52:13;0.00;0.00;0.00
76784;PMS7003;66893;44.316;0.092;2024-03-29T05:54:45;1.00;0.00;0.00
76784;PMS7003;66893;44.316;0.092;2024-03-29T05:57:14;1.00;0.00;0.00
76784;PMS7003;66893;44.316;0.092;2024-03-29T05:59:39;0.00;0.00;0.00
76784;PMS7003;66893;44.316;0.092;2024-03-29T06:02:05;0.00;0.00;0.00
76784;PMS7003;66893;44.316;0.092;2024-03-29T06:04:31;1.00;1.00;1.00
76784;PMS7003;66893;44.316;0.092;2024-03-29T06:07:01;2.00;1.00;0.50
76784;PMS7003;66893;44.316;0.092;2024-03-29T06:09:27;1.00;1.00;1.00
76784;PMS7003;66893;44.316;0.092;2024-03-29T06:11:53;1.00;1.00;0.00
76784;PMS7003;66893;44.316;0.092;2024-03-29T06:14:20;1.00;1.00;1.00
76784;PMS7003;66893;44.316;0.092;2024-03-29T06:17:04;0.75;0.75;0.00
76784;PMS7003;66893;44.316;0.092;2024-03-29T06:19:48;1.00;1.00;0.50
76784;PMS7003;66893;44.316;0.092;2024-03-29T06:22:20;1.00;1.00;0.75
76784;PMS7003;66893;44.316;0.092;2024-03-29T06:24:46;1.75;1.00;1.00
76784;PMS7003;66893;44.316;0.092;2024-03-29T06:27:13;1.00;1.00;1.00
76784;PMS7003;66893;44.316;0.092;2024-03-29T06:29:42;2.00;2.00;1.00
76784;PMS7003;66893;44.316;0.092;2024-03-29T06:32:08;1.25;1.00;1.00
76784;PMS7003;66893;44.316;0.092;2024-03-29T06:34:34;1.00;1.00;0.75
76784;PMS7003;66893;44.316;0.092;2024-03-29T06:36:59;2.25;1.00;1.00
76784;PMS7003;66893;44.316;0.092;2024-03-29T06:39:25;1.75;1.50;1.00
76784;PMS7003;66893;44.316;0.092;2024-03-29T06:41:53;2.00;2.00;1.00
76784;PMS7003;66893;44.316;0.092;2024-03-29T06:44:19;1.25;1.25;1.00
76784;PMS7003;66893;44.316;0.092;2024-03-29T06:46:45;2.25;1.75;1.00
76784;PMS7003;66893;44.316;0.092;2024-03-29T06:49:14;2.00;2.00;1.50
76784;PMS7003;66893;44.316;0.092;2024-03-29T06:51:40;2.00;2.00;1.00
76784;PMS7003;66893;44.316;0.092;2024-03-29T06:54:05;2.25;1.00;0.75
76784;PMS7003;66893;44.316;0.092;2024-03-29T06:56:31;1.00;1.00;1.00
76784;PMS7003;66893;44.316;0.092;2024-03-29T06:58:57;2.75;0.75;0.50
76784;PMS7003;66893;44.316;0.092;2024-03-29T07:01:23;0.00;0.00;0.00
76784;PMS7003;66893;44.316;0.092;2024-03-29T07:03:48;4.00;1.00;1.00
76784;PMS7003;66893;44.316;0.092;2024-03-29T07:06:14;1.75;1.50;1.00
76784;PMS7003;66893;44.316;0.092;2024-03-29T07:08:40;2.00;2.00;1.50
76784;PMS7003;66893;44.316;0.092;2024-03-29T07:11:05;4.00;2.00;1.25
76784;PMS7003;66893;44.316;0.092;2024-03-29T07:13:31;2.00;2.00;1.00
76784;PMS7003;66893;44.316;0.092;2024-03-29T07:15:57;5.25;5.25;4.25
76784;PMS7003;66893;44.316;0.092;2024-03-29T07:18:25;9.50;9.00;6.50
76784;PMS7003;66893;44.316;0.092;2024-03-29T07:20:51;7.75;7.75;5.75
76784;PMS7003;66893;44.316;0.092;2024-03-29T07:23:17;7.50;6.25;4.75
76784;PMS7003;66893;44.316;0.092;2024-03-29T07:25:44;3.00;3.00;2.25
76784;PMS7003;66893;44.316;0.092;2024-03-29T07:28:10;5.00;3.50;3.25
76784;PMS7003;66893;44.316;0.092;2024-03-29T07:30:39;6.25;6.25;5.00
76784;PMS7003;66893;44.316;0.092;2024-03-29T07:33:05;5.75;4.50;4.25
76784;PMS7003;66893;44.316;0.092;2024-03-29T07:35:31;5.50;4.00;3.00
76784;PMS7003;66893;44.316;0.092;2024-03-29T07:37:56;6.25;4.75;3.75
76784;PMS7003;66893;44.316;0.092;2024-03-29T07:40:22;4.75;4.75;3.50
76784;PMS7003;66893;44.316;0.092;2024-03-29T07:42:47;5.25;5.00;4.00
76784;PMS7003;66893;44.316;0.092;2024-03-29T07:45:13;4.25;3.50;3.00
76784;PMS7003;66893;44.316;0.092;2024-03-29T07:47:38;7.50;6.50;5.00
76784;PMS7003;66893;44.316;0.092;2024-03-29T07:50:04;9.75;8.00;5.00
76784;PMS7003;66893;44.316;0.092;2024-03-29T07:52:31;11.25;9.75;7.00
76784;PMS7003;66893;44.316;0.092;2024-03-29T07:54:58;7.25;3.75;3.50
76784;PMS7003;66893;44.316;0.092;2024-03-29T07:57:25;5.00;4.00;4.00
76784;PMS7003;66893;44.316;0.092;2024-03-29T07:59:50;8.00;4.25;4.00
76784;PMS7003;66893;44.316;0.092;2024-03-29T08:02:16;5.25;4.25;3.00
76784;PMS7003;66893;44.316;0.092;2024-03-29T08:04:41;4.00;4.00;3.00
76784;PMS7003;66893;44.316;0.092;2024-03-29T08:07:10;5.00;5.00;4.00
76784;PMS7003;66893;44.316;0.092;2024-03-29T08:09:37;5.00;3.50;3.00
76784;PMS7003;66893;44.316;0.092;2024-03-29T08:12:04;6.00;4.25;3.25
76784;PMS7003;66893;44.316;0.092;2024-03-29T08:14:30;9.00;6.75;4.25
76784;PMS7003;66893;44.316;0.092;2024-03-29T08:16:55;9.50;9.50;8.75
76784;PMS7003;66893;44.316;0.092;2024-03-29T08:19:21;11.75;10.75;8.75
76784;PMS7003;66893;44.316;0.092;2024-03-29T08:21:46;9.25;7.25;5.00
76784;PMS7003;66893;44.316;0.092;2024-03-29T08:24:12;6.75;6.75;5.00
76784;PMS7003;66893;44.316;0.092;2024-03-29T08:26:37;7.00;6.00;4.50
76784;PMS7003;66893;44.316;0.092;2024-03-29T08:29:03;8.25;5.00;4.00
76784;PMS7003;66893;44.316;0.092;2024-03-29T08:31:28;6.00;6.00;5.00
76784;PMS7003;66893;44.316;0.092;2024-03-29T08:33:54;5.00;5.00;4.00
76784;PMS7003;66893;44.316;0.092;2024-03-29T08:36:20;5.00;5.00;3.75
76784;PMS7003;66893;44.316;0.092;2024-03-29T08:38:45;5.00;5.00;4.00
76784;PMS7003;66893;44.316;0.092;2024-03-29T08:41:12;5.75;4.00;2.75
76784;PMS7003;66893;44.316;0.092;2024-03-29T08:43:38;6.50;4.75;3.00
76784;PMS7003;66893;44.316;0.092;2024-03-29T08:46:03;4.75;4.00;3.25
76784;PMS7003;66893;44.316;0.092;2024-03-29T08:48:29;5.00;3.00;3.00
76784;PMS7003;66893;44.316;0.092;2024-03-29T08:50:55;4.75;4.00;3.75
76784;PMS7003;66893;44.316;0.092;2024-03-29T08:53:20;4.75;4.75;4.00
76784;PMS7003;66893;44.316;0.092;2024-03-29T08:55:50;6.25;4.00;3.00
76784;PMS7003;66893;44.316;0.092;2024-03-29T08:58:16;2.75;2.75;2.00
76784;PMS7003;66893;44.316;0.092;2024-03-29T09:00:43;4.00;4.00;3.00
76784;PMS7003;66893;44.316;0.092;2024-03-29T09:03:17;3.75;3.25;2.75
76784;PMS7003;66893;44.316;0.092;2024-03-29T09:05:42;2.25;2.25;2.00
76784;PMS7003;66893;44.316;0.092;2024-03-29T09:08:08;5.75;3.00;2.50
76784;PMS7003;66893;44.316;0.092;2024-03-29T09:10:33;3.75;3.00;2.00
76784;PMS7003;66893;44.316;0.092;2024-03-29T09:12:59;3.50;3.25;3.00
76784;PMS7003;66893;44.316;0.092;2024-03-29T09:15:24;5.00;5.00;4.00
76784;PMS7003;66893;44.316;0.092;2024-03-29T09:17:50;3.50;3.50;3.00
76784;PMS7003;66893;44.316;0.092;2024-03-29T09:20:19;3.25;3.25;3.00
76784;PMS7003;66893;44.316;0.092;2024-03-29T09:22:44;3.00;2.25;2.00
76784;PMS7003;66893;44.316;0.092;2024-03-29T09:25:10;4.50;4.00;3.25
76784;PMS7003;66893;44.316;0.092;2024-03-29T09:27:38;3.00;3.00;2.00
76784;PMS7003;66893;44.316;0.092;2024-03-29T09:30:07;3.75;2.75;2.00
76784;PMS7003;66893;44.316;0.092;2024-03-29T09:32:34;2.25;2.00;2.00
76784;PMS7003;66893;44.316;0.092;2024-03-29T09:35:00;3.00;3.00;3.00
76784;PMS7003;66893;44.316;0.092;2024-03-29T09:37:26;4.00;4.00;4.00
76784;PMS7003;66893;44.316;0.092;2024-03-29T09:39:52;4.00;4.00;3.00
76784;PMS7003;66893;44.316;0.092;2024-03-29T09:42:17;4.25;4.25;4.00
76784;PMS7003;66893;44.316;0.092;2024-03-29T09:44:47;3.25;3.00;2.75
76784;PMS7003;66893;44.316;0.092;2024-03-29T09:47:17;3.50;3.50;2.75
76784;PMS7003;66893;44.316;0.092;2024-03-29T09:49:44;3.00;2.50;2.00
76784;PMS7003;66893;44.316;0.092;2024-03-29T09:52:10;3.25;3.25;3.00
76784;PMS7003;66893;44.316;0.092;2024-03-29T09:54:37;2.25;2.25;2.00
76784;PMS7003;66893;44.316;0.092;2024-03-29T09:57:03;2.00;2.00;2.00
76784;PMS7003;66893;44.316;0.092;2024-03-29T09:59:30;2.00;2.00;2.00
76784;PMS7003;66893;44.316;0.092;2024-03-29T10:01:55;3.00;2.25;2.00
76784;PMS7003;66893;44.316;0.092;2024-03-29T10:04:23;3.00;2.75;2.00
76784;PMS7003;66893;44.316;0.092;2024-03-29T10:06:49;1.75;1.75;1.75
76784;PMS7003;66893;44.316;0.092;2024-03-29T10:09:18;3.00;3.00;1.50
76784;PMS7003;66893;44.316;0.092;2024-03-29T10:11:44;1.75;1.75;1.00
76784;PMS7003;66893;44.316;0.092;2024-03-29T10:14:10;2.75;2.00;2.00
76784;PMS7003;66893;44.316;0.092;2024-03-29T10:16:36;5.50;3.00;2.00
76784;PMS7003;66893;44.316;0.092;2024-03-29T10:19:02;3.00;3.00;3.00
76784;PMS7003;66893;44.316;0.092;2024-03-29T10:21:28;3.50;3.50;3.00
76784;PMS7003;66893;44.316;0.092;2024-03-29T10:23:53;2.00;2.00;1.50
76784;PMS7003;66893;44.316;0.092;2024-03-29T10:26:19;2.25;2.00;2.00
76784;PMS7003;66893;44.316;0.092;2024-03-29T10:28:46;2.50;2.00;2.00
76784;PMS7003;66893;44.316;0.092;2024-03-29T10:31:13;2.00;2.00;1.00
76784;PMS7003;66893;44.316;0.092;2024-03-29T10:33:44;2.50;1.25;1.00
76784;PMS7003;66893;44.316;0.092;2024-03-29T10:36:10;5.00;1.50;1.00
76784;PMS7003;66893;44.316;0.092;2024-03-29T10:38:37;3.00;1.00;1.00
76784;PMS7003;66893;44.316;0.092;2024-03-29T10:41:04;1.00;1.00;1.00
76784;PMS7003;66893;44.316;0.092;2024-03-29T10:43:32;1.00;1.00;1.00
76784;PMS7003;66893;44.316;0.092;2024-03-29T10:45:59;1.00;1.00;1.00
76784;PMS7003;66893;44.316;0.092;2024-03-29T10:48:28;1.00;1.00;0.50
76784;PMS7003;66893;44.316;0.092;2024-03-29T10:50:56;1.00;0.75;0.00
76784;PMS7003;66893;44.316;0.092;2024-03-29T10:53:23;6.25;5.25;3.00
76784;PMS7003;66893;44.316;0.092;2024-03-29T10:55:53;1.50;1.50;1.00
76784;PMS7003;66893;44.316;0.092;2024-03-29T10:58:21;1.00;1.00;1.00
76784;PMS7003;66893;44.316;0.092;2024-03-29T11:00:50;2.00;2.00;1.00
76784;PMS7003;66893;44.316;0.092;2024-03-29T11:03:37;2.00;2.00;1.25
76784;PMS7003;66893;44.316;0.092;2024-03-29T11:06:06;1.25;1.00;0.50
76784;PMS7003;66893;44.316;0.092;2024-03-29T11:08:32;2.50;1.25;1.00
76784;PMS7003;66893;44.316;0.092;2024-03-29T11:11:02;2.50;2.50;2.25
76784;PMS7003;66893;44.316;0.092;2024-03-29T11:16:10;1.00;1.00;0.50
76784;PMS7003;66893;44.316;0.092;2024-03-29T11:18:36;2.25;2.00;1.75
76784;PMS7003;66893;44.316;0.092;2024-03-29T11:21:03;1.00;1.00;1.00
76784;PMS7003;66893;44.316;0.092;2024-03-29T11:23:33;1.25;1.25;1.00
76784;PMS7003;66893;44.316;0.092;2024-03-29T11:25:59;1.00;1.00;1.00
76784;PMS7003;66893;44.316;0.092;2024-03-29T11:28:34;1.50;1.00;0.75
76784;PMS7003;66893;44.316;0.092;2024-03-29T11:31:04;3.00;1.75;1.00
76784;PMS7003;66893;44.316;0.092;2024-03-29T11:35:59;1.00;1.00;1.00
76784;PMS7003;66893;44.316;0.092;2024-03-29T11:38:46;1.25;1.00;1.00
76784;PMS7003;66893;44.316;0.092;2024-03-29T11:41:14;13.75;4.00;2.00
76784;PMS7003;66893;44.316;0.092;2024-03-29T11:43:41;7.25;3.00;2.00
76784;PMS7003;66893;44.316;0.092;2024-03-29T11:46:14;3.50;1.00;0.25
76784;PMS7003;66893;44.316;0.092;2024-03-29T11:48:43;1.00;1.00;0.00
76784;PMS7003;66893;44.316;0.092;2024-03-29T11:51:15;5.25;1.00;1.00
76784;PMS7003;66893;44.316;0.092;2024-03-29T11:53:43;1.00;1.00;0.75
76784;PMS7003;66893;44.316;0.092;2024-03-29T11:56:10;3.50;1.50;1.50
76784;PMS7003;66893;44.316;0.092;2024-03-29T11:58:39;4.50;1.00;0.00
76784;PMS7003;66893;44.316;0.092;2024-03-29T12:01:05;5.75;1.00;1.00
76784;PMS7003;66893;44.316;0.092;2024-03-29T12:03:37;2.00;2.00;1.00
76784;PMS7003;66893;44.316;0.092;2024-03-29T12:06:04;1.50;1.00;0.25
76784;PMS7003;66893;44.316;0.092;2024-03-29T12:08:31;1.00;1.00;0.00
76784;PMS7003;66893;44.316;0.092;2024-03-29T12:11:01;2.00;1.00;0.75
76784;PMS7003;66893;44.316;0.092;2024-03-29T12:13:37;4.00;0.50;0.50
76784;PMS7003;66893;44.316;0.092;2024-03-29T12:16:05;3.25;1.00;0.50
76784;PMS7003;66893;44.316;0.092;2024-03-29T12:18:32;0.00;0.00;0.00
76784;PMS7003;66893;44.316;0.092;2024-03-29T12:20:58;0.75;0.00;0.00
76784;PMS7003;66893;44.316;0.092;2024-03-29T12:23:23;2.25;2.25;2.00
76784;PMS7003;66893;44.316;0.092;2024-03-29T12:25:50;0.00;0.00;0.00
76784;PMS7003;66893;44.316;0.092;2024-03-29T12:28:18;1.50;1.00;0.25
76784;PMS7003;66893;44.316;0.092;2024-03-29T12:30:44;1.00;1.00;0.25
76784;PMS7003;66893;44.316;0.092;2024-03-29T12:33:12;0.50;0.00;0.00
76784;PMS7003;66893;44.316;0.092;2024-03-29T12:35:45;0.00;0.00;0.00
76784;PMS7003;66893;44.316;0.092;2024-03-29T12:38:14;1.25;0.25;0.00
76784;PMS7003;66893;44.316;0.092;2024-03-29T12:40:41;3.50;0.00;0.00
76784;PMS7003;66893;44.316;0.092;2024-03-29T12:43:12;1.00;0.00;0.00
76784;PMS7003;66893;44.316;0.092;2024-03-29T12:45:39;0.00;0.00;0.00
76784;PMS7003;66893;44.316;0.092;2024-03-29T12:48:13;0.00;0.00;0.00
76784;PMS7003;66893;44.316;0.092;2024-03-29T12:50:41;0.00;0.00;0.00
76784;PMS7003;66893;44.316;0.092;2024-03-29T12:53:08;0.00;0.00;0.00
76784;PMS7003;66893;44.316;0.092;2024-03-29T12:55:36;0.00;0.00;0.00
76784;PMS7003;66893;44.316;0.092;2024-03-29T12:58:07;0.00;0.00;0.00
76784;PMS7003;66893;44.316;0.092;2024-03-29T13:00:35;0.00;0.00;0.00
76784;PMS7003;66893;44.316;0.092;2024-03-29T13:03:01;0.00;0.00;0.00
76784;PMS7003;66893;44.316;0.092;2024-03-29T13:05:27;1.00;1.00;0.75
76784;PMS7003;66893;44.316;0.092;2024-03-29T13:07:54;1.00;1.00;0.25
76784;PMS7003;66893;44.316;0.092;2024-03-29T13:10:21;0.00;0.00;0.00
76784;PMS7003;66893;44.316;0.092;2024-03-29T13:12:47;2.00;0.75;0.00
76784;PMS7003;66893;44.316;0.092;2024-03-29T13:15:19;0.00;0.00;0.00
76784;PMS7003;66893;44.316;0.092;2024-03-29T13:17:47;1.00;1.00;1.00
76784;PMS7003;66893;44.316;0.092;2024-03-29T13:20:14;3.75;0.00;0.00
76784;PMS7003;66893;44.316;0.092;2024-03-29T13:22:44;0.00;0.00;0.00
76784;PMS7003;66893;44.316;0.092;2024-03-29T13:25:14;0.25;0.00;0.00
76784;PMS7003;66893;44.316;0.092;2024-03-29T13:27:50;0.75;0.00;0.00
76784;PMS7003;66893;44.316;0.092;2024-03-29T13:30:19;0.00;0.00;0.00
76784;PMS7003;66893;44.316;0.092;2024-03-29T13:32:45;0.00;0.00;0.00
76784;PMS7003;66893;44.316;0.092;2024-03-29T13:35:11;0.00;0.00;0.00
76784;PMS7003;66893;44.316;0.092;2024-03-29T13:37:41;1.00;0.00;0.00
76784;PMS7003;66893;44.316;0.092;2024-03-29T13:40:13;1.00;0.00;0.00
76784;PMS7003;66893;44.316;0.092;2024-03-29T13:42:39;0.00;0.00;0.00
76784;PMS7003;66893;44.316;0.092;2024-03-29T13:45:05;0.00;0.00;0.00
76784;PMS7003;66893;44.316;0.092;2024-03-29T13:47:34;0.00;0.00;0.00
76784;PMS7003;66893;44.316;0.092;2024-03-29T13:50:05;0.00;0.00;0.00
76784;PMS7003;66893;44.316;0.092;2024-03-29T13:52:32;0.00;0.00;0.00
76784;PMS7003;66893;44.316;0.092;2024-03-29T13:54:58;0.00;0.00;0.00
76784;PMS7003;66893;44.316;0.092;2024-03-29T13:57:24;0.50;0.00;0.00
76784;PMS7003;66893;44.316;0.092;2024-03-29T13:59:50;1.00;0.00;0.00
76784;PMS7003;66893;44.316;0.092;2024-03-29T14:02:16;0.00;0.00;0.00
76784;PMS7003;66893;44.316;0.092;2024-03-29T14:04:43;0.00;0.00;0.00
76784;PMS7003;66893;44.316;0.092;2024-03-29T14:07:09;0.00;0.00;0.00
76784;PMS7003;66893;44.316;0.092;2024-03-29T14:09:37;0.00;0.00;0.00
76784;PMS7003;66893;44.316;0.092;2024-03-29T14:12:03;0.00;0.00;0.00
76784;PMS7003;66893;44.316;0.092;2024-03-29T14:14:29;0.00;0.00;0.00
76784;PMS7003;66893;44.316;0.092;2024-03-29T14:16:56;0.00;0.00;0.00
76784;PMS7003;66893;44.316;0.092;2024-03-29T14:19:22;0.00;0.00;0.00
76784;PMS7003;66893;44.316;0.092;2024-03-29T14:21:47;0.00;0.00;0.00
76784;PMS7003;66893;44.316;0.092;2024-03-29T14:24:13;0.25;0.00;0.00
76784;PMS7003;66893;44.316;0.092;2024-03-29T14:26:38;0.00;0.00;0.00